PATK/TKA METAR and TAF weather

Enter ICAO airport designator
Station Type Date Time Source
PATK METAR 2019/04/25 17:53 UTC NOAA

PATK 251753Z 03006KT 10SM CLR 06/M12 A3010 RMK AO2 SLP197 T00561122 10056 21028 58002


Station Type Date Time Source
PATK Decoded METAR 2019/04/25 17:53 UTC NOAA

TALKEETNA AIRPORT, AK, United States (PATK) 62-19N 150-06W 109M
Apr 25, 2019 - 01:53 PM EDT / 2019.04.25 1753 UTC
Wind: from the NNE (030 degrees) at 7 MPH (6 KT):0
Visibility: 10 mile(s):0
Sky conditions: clear
Temperature: 42.1 F (5.6 C)
Dew Point: 10.0 F (-12.2 C)
Relative Humidity: 26%
Pressure (altimeter): 30.1 in. Hg (1019 hPa)
Pressure tendency: 0.01 inches (0.2 hPa) lower than three hours ago
ob: PATK 251753Z 03006KT 10SM CLR 06/M12 A3010 RMK AO2 SLP197 T00561122 10056 21028 58002
cycle: 18

Station Type Date Time Source
PATK TAF 2019/04/25 18:33 UTC NOAA

TAF PATK 251730Z 2518/2618 36007KT P6SM BKN200

Example: see airport list